sensor_id;sensor_type;location;lat;lon;timestamp;pressure;altitude;pressure_sealevel;temperature;humidity
24892;BME280;12954;50.688;10.908;2023-02-21T00:02:23;95811.72;;;7.02;61.12
24892;BME280;12954;50.688;10.908;2023-02-21T00:05:09;95815.69;;;6.94;61.38
24892;BME280;12954;50.688;10.908;2023-02-21T00:07:57;95820.69;;;6.86;61.69
24892;BME280;12954;50.688;10.908;2023-02-21T00:10:44;95812.91;;;6.89;61.62
24892;BME280;12954;50.688;10.908;2023-02-21T00:13:30;95821.41;;;6.81;61.95
24892;BME280;12954;50.688;10.908;2023-02-21T00:16:17;95815.25;;;6.81;61.79
24892;BME280;12954;50.688;10.908;2023-02-21T00:19:03;95829.81;;;6.90;61.79
24892;BME280;12954;50.688;10.908;2023-02-21T00:21:49;95834.38;;;6.89;61.83
24892;BME280;12954;50.688;10.908;2023-02-21T00:24:37;95824.78;;;6.93;61.53
24892;BME280;12954;50.688;10.908;2023-02-21T00:27:23;95806.63;;;6.79;61.37
24892;BME280;12954;50.688;10.908;2023-02-21T00:30:11;95837.97;;;6.95;61.42
24892;BME280;12954;50.688;10.908;2023-02-21T00:32:58;95827.22;;;6.95;61.44
24892;BME280;12954;50.688;10.908;2023-02-21T00:35:44;95829.91;;;6.95;61.61
24892;BME280;12954;50.688;10.908;2023-02-21T00:38:29;95823.59;;;7.06;61.10
24892;BME280;12954;50.688;10.908;2023-02-21T00:41:17;95820.81;;;7.01;61.22
24892;BME280;12954;50.688;10.908;2023-02-21T00:44:02;95780.88;;;6.78;60.88
24892;BME280;12954;50.688;10.908;2023-02-21T00:46:48;95824.59;;;7.00;60.95
24892;BME280;12954;50.688;10.908;2023-02-21T00:49:33;95817.88;;;6.97;60.67
24892;BME280;12954;50.688;10.908;2023-02-21T00:52:19;95811.69;;;6.97;60.55
24892;BME280;12954;50.688;10.908;2023-02-21T00:55:05;95822.16;;;6.98;60.66
24892;BME280;12954;50.688;10.908;2023-02-21T00:57:52;95815.41;;;7.17;59.92
24892;BME280;12954;50.688;10.908;2023-02-21T01:00:38;95811.13;;;7.21;59.48
24892;BME280;12954;50.688;10.908;2023-02-21T01:03:24;95819.91;;;7.12;59.70
24892;BME280;12954;50.688;10.908;2023-02-21T01:06:11;95814.38;;;6.97;60.12
24892;BME280;12954;50.688;10.908;2023-02-21T01:08:57;95809.00;;;6.97;60.14
24892;BME280;12954;50.688;10.908;2023-02-21T01:11:42;95820.31;;;7.04;60.05
24892;BME280;12954;50.688;10.908;2023-02-21T01:14:29;95778.69;;;6.75;60.10
24892;BME280;12954;50.688;10.908;2023-02-21T01:17:15;95815.22;;;7.02;60.18
24892;BME280;12954;50.688;10.908;2023-02-21T01:20:01;95804.41;;;7.19;59.35
24892;BME280;12954;50.688;10.908;2023-02-21T01:22:46;95801.72;;;7.19;59.13
24892;BME280;12954;50.688;10.908;2023-02-21T01:25:32;95748.94;;;6.71;59.44
24892;BME280;12954;50.688;10.908;2023-02-21T01:28:18;95803.34;;;7.20;59.06
24892;BME280;12954;50.688;10.908;2023-02-21T01:31:05;95799.19;;;7.07;59.37
24892;BME280;12954;50.688;10.908;2023-02-21T01:33:51;95797.88;;;7.10;59.31
24892;BME280;12954;50.688;10.908;2023-02-21T01:36:39;95798.78;;;7.20;58.83
24892;BME280;12954;50.688;10.908;2023-02-21T01:39:25;95788.75;;;7.11;59.04
24892;BME280;12954;50.688;10.908;2023-02-21T01:42:11;95788.25;;;7.14;58.50
24892;BME280;12954;50.688;10.908;2023-02-21T01:45:38;95786.19;;;6.94;59.29
24892;BME280;12954;50.688;10.908;2023-02-21T01:48:28;95770.41;;;6.98;59.19
24892;BME280;12954;50.688;10.908;2023-02-21T01:51:18;95777.78;;;7.12;59.01
24892;BME280;12954;50.688;10.908;2023-02-21T01:54:06;95773.38;;;7.01;59.03
24892;BME280;12954;50.688;10.908;2023-02-21T01:56:54;95781.25;;;7.13;58.84
24892;BME280;12954;50.688;10.908;2023-02-21T01:59:41;95769.44;;;7.09;58.94
24892;BME280;12954;50.688;10.908;2023-02-21T02:02:32;95747.50;;;6.90;59.02
24892;BME280;12954;50.688;10.908;2023-02-21T02:05:21;95771.78;;;7.00;59.13
24892;BME280;12954;50.688;10.908;2023-02-21T02:08:07;95764.47;;;6.96;59.47
24892;BME280;12954;50.688;10.908;2023-02-21T02:11:03;95763.47;;;7.02;59.14
24892;BME280;12954;50.688;10.908;2023-02-21T02:14:09;95773.50;;;6.90;59.46
24892;BME280;12954;50.688;10.908;2023-02-21T02:16:44;95776.81;;;6.97;59.18
24892;BME280;12954;50.688;10.908;2023-02-21T02:19:32;95743.97;;;6.85;59.05
24892;BME280;12954;50.688;10.908;2023-02-21T02:22:30;95780.56;;;6.96;59.17
24892;BME280;12954;50.688;10.908;2023-02-21T02:25:20;95766.25;;;6.85;59.60
24892;BME280;12954;50.688;10.908;2023-02-21T02:28:09;95709.28;;;6.51;59.60
24892;BME280;12954;50.688;10.908;2023-02-21T02:34:30;95747.53;;;6.68;59.94
24892;BME280;12954;50.688;10.908;2023-02-21T02:37:09;95722.13;;;6.49;60.09
24892;BME280;12954;50.688;10.908;2023-02-21T02:39:45;95745.63;;;6.64;60.30
24892;BME280;12954;50.688;10.908;2023-02-21T02:42:19;95675.53;;;6.29;60.27
24892;BME280;12954;50.688;10.908;2023-02-21T02:44:56;95713.94;;;6.61;60.41
24892;BME280;12954;50.688;10.908;2023-02-21T02:47:30;95741.13;;;6.69;60.37
24892;BME280;12954;50.688;10.908;2023-02-21T02:50:05;95732.03;;;6.71;60.34
24892;BME280;12954;50.688;10.908;2023-02-21T02:52:35;95740.56;;;6.67;60.50
24892;BME280;12954;50.688;10.908;2023-02-21T02:55:23;95725.59;;;6.72;60.31
24892;BME280;12954;50.688;10.908;2023-02-21T02:57:55;95745.16;;;6.72;60.46
24892;BME280;12954;50.688;10.908;2023-02-21T03:00:24;95726.63;;;6.65;60.43
24892;BME280;12954;50.688;10.908;2023-02-21T03:03:05;95734.50;;;6.77;60.26
24892;BME280;12954;50.688;10.908;2023-02-21T03:05:48;95728.34;;;6.77;60.23
24892;BME280;12954;50.688;10.908;2023-02-21T03:08:26;95737.19;;;6.77;60.39
24892;BME280;12954;50.688;10.908;2023-02-21T03:11:02;95724.56;;;6.78;60.43
24892;BME280;12954;50.688;10.908;2023-02-21T03:13:36;95727.03;;;6.79;60.34
24892;BME280;12954;50.688;10.908;2023-02-21T03:16:12;95725.16;;;6.80;60.32
24892;BME280;12954;50.688;10.908;2023-02-21T03:18:47;95733.75;;;6.82;60.14
24892;BME280;12954;50.688;10.908;2023-02-21T03:21:20;95711.03;;;6.62;60.14
24892;BME280;12954;50.688;10.908;2023-02-21T03:23:52;95736.75;;;6.85;60.06
24892;BME280;12954;50.688;10.908;2023-02-21T03:26:21;95731.03;;;6.77;60.04
24892;BME280;12954;50.688;10.908;2023-02-21T03:28:50;95738.66;;;6.90;60.00
24892;BME280;12954;50.688;10.908;2023-02-21T03:31:24;95739.50;;;6.95;59.31
24892;BME280;12954;50.688;10.908;2023-02-21T03:33:54;95743.50;;;6.93;59.69
24892;BME280;12954;50.688;10.908;2023-02-21T03:36:24;95737.06;;;6.89;59.63
24892;BME280;12954;50.688;10.908;2023-02-21T03:38:54;95740.94;;;7.03;58.98
24892;BME280;12954;50.688;10.908;2023-02-21T03:41:22;95744.63;;;6.97;58.99
24892;BME280;12954;50.688;10.908;2023-02-21T03:43:51;95751.91;;;7.01;58.84
24892;BME280;12954;50.688;10.908;2023-02-21T03:46:20;95714.84;;;6.72;59.32
24892;BME280;12954;50.688;10.908;2023-02-21T03:48:48;95724.06;;;6.81;59.19
24892;BME280;12954;50.688;10.908;2023-02-21T03:51:17;95725.41;;;7.05;58.22
24892;BME280;12954;50.688;10.908;2023-02-21T03:53:49;95730.88;;;6.88;58.76
24892;BME280;12954;50.688;10.908;2023-02-21T03:56:17;95717.84;;;6.75;59.15
24892;BME280;12954;50.688;10.908;2023-02-21T03:58:51;95695.88;;;6.51;59.06
24892;BME280;12954;50.688;10.908;2023-02-21T04:01:20;95723.47;;;6.74;59.20
24892;BME280;12954;50.688;10.908;2023-02-21T04:03:50;95735.47;;;6.93;58.60
24892;BME280;12954;50.688;10.908;2023-02-21T04:06:19;95707.31;;;6.68;58.82
24892;BME280;12954;50.688;10.908;2023-02-21T04:08:50;95713.81;;;6.73;58.54
24892;BME280;12954;50.688;10.908;2023-02-21T04:11:20;95723.22;;;6.75;58.71
24892;BME280;12954;50.688;10.908;2023-02-21T04:13:49;95713.72;;;6.62;58.91
24892;BME280;12954;50.688;10.908;2023-02-21T04:16:20;95699.88;;;6.49;58.84
24892;BME280;12954;50.688;10.908;2023-02-21T04:18:48;95711.03;;;6.62;59.02
24892;BME280;12954;50.688;10.908;2023-02-21T04:21:17;95650.00;;;6.21;59.14
24892;BME280;12954;50.688;10.908;2023-02-21T04:23:46;95708.28;;;6.57;59.14
24892;BME280;12954;50.688;10.908;2023-02-21T04:26:16;95700.44;;;6.51;59.44
24892;BME280;12954;50.688;10.908;2023-02-21T04:28:46;95699.81;;;6.65;59.08
24892;BME280;12954;50.688;10.908;2023-02-21T04:31:15;95694.56;;;6.54;59.39
24892;BME280;12954;50.688;10.908;2023-02-21T04:33:44;95681.88;;;6.44;59.64
24892;BME280;12954;50.688;10.908;2023-02-21T04:36:14;95671.16;;;6.44;59.36
24892;BME280;12954;50.688;10.908;2023-02-21T04:38:42;95654.16;;;6.34;59.36
24892;BME280;12954;50.688;10.908;2023-02-21T04:41:11;95678.69;;;6.47;59.35
24892;BME280;12954;50.688;10.908;2023-02-21T04:43:43;95673.91;;;6.49;59.45
24892;BME280;12954;50.688;10.908;2023-02-21T04:46:13;95664.13;;;6.38;59.67
24892;BME280;12954;50.688;10.908;2023-02-21T04:48:44;95654.22;;;6.17;60.00
24892;BME280;12954;50.688;10.908;2023-02-21T04:51:13;95661.91;;;6.30;59.98
24892;BME280;12954;50.688;10.908;2023-02-21T04:53:43;95648.25;;;6.32;59.74
24892;BME280;12954;50.688;10.908;2023-02-21T04:56:12;95660.31;;;6.34;59.89
24892;BME280;12954;50.688;10.908;2023-02-21T04:58:42;95618.75;;;6.10;59.80
24892;BME280;12954;50.688;10.908;2023-02-21T05:01:12;95652.22;;;6.29;59.91
24892;BME280;12954;50.688;10.908;2023-02-21T05:03:42;95668.88;;;6.31;59.94
24892;BME280;12954;50.688;10.908;2023-02-21T05:06:16;95663.56;;;6.36;59.72
24892;BME280;12954;50.688;10.908;2023-02-21T05:08:46;95623.22;;;6.21;59.98
24892;BME280;12954;50.688;10.908;2023-02-21T05:11:18;95667.19;;;6.25;60.13
24892;BME280;12954;50.688;10.908;2023-02-21T05:13:49;95668.31;;;6.29;60.11
24892;BME280;12954;50.688;10.908;2023-02-21T05:16:18;95602.41;;;5.85;60.38
24892;BME280;12954;50.688;10.908;2023-02-21T05:18:47;95659.78;;;6.32;60.06
24892;BME280;12954;50.688;10.908;2023-02-21T05:21:17;95665.63;;;6.29;60.01
24892;BME280;12954;50.688;10.908;2023-02-21T05:23:47;95653.88;;;6.30;60.24
24892;BME280;12954;50.688;10.908;2023-02-21T05:26:25;95659.09;;;6.20;60.19
24892;BME280;12954;50.688;10.908;2023-02-21T05:28:55;95665.81;;;6.44;59.91
24892;BME280;12954;50.688;10.908;2023-02-21T05:31:23;95676.91;;;6.31;60.29
24892;BME280;12954;50.688;10.908;2023-02-21T05:33:52;95660.09;;;6.14;60.39
24892;BME280;12954;50.688;10.908;2023-02-21T05:36:21;95693.47;;;6.28;60.50
24892;BME280;12954;50.688;10.908;2023-02-21T05:38:53;95675.22;;;6.25;60.09
24892;BME280;12954;50.688;10.908;2023-02-21T05:41:23;95704.19;;;6.28;60.39
24892;BME280;12954;50.688;10.908;2023-02-21T05:43:52;95704.81;;;6.35;60.40
24892;BME280;12954;50.688;10.908;2023-02-21T05:46:25;95710.00;;;6.20;60.85
24892;BME280;12954;50.688;10.908;2023-02-21T05:48:56;95706.31;;;6.26;60.95
24892;BME280;12954;50.688;10.908;2023-02-21T05:51:26;95710.63;;;6.27;61.07
24892;BME280;12954;50.688;10.908;2023-02-21T05:53:55;95711.84;;;6.41;60.91
24892;BME280;12954;50.688;10.908;2023-02-21T05:56:24;95681.34;;;6.21;61.25
24892;BME280;12954;50.688;10.908;2023-02-21T05:58:52;95695.16;;;6.34;61.51
24892;BME280;12954;50.688;10.908;2023-02-21T06:01:20;95708.28;;;6.57;61.03
24892;BME280;12954;50.688;10.908;2023-02-21T06:03:50;95705.72;;;6.46;61.71
24892;BME280;12954;50.688;10.908;2023-02-21T06:06:19;95694.81;;;6.52;61.65
24892;BME280;12954;50.688;10.908;2023-02-21T06:08:48;95693.16;;;6.46;61.87
24892;BME280;12954;50.688;10.908;2023-02-21T06:11:22;95659.09;;;6.20;61.64
24892;BME280;12954;50.688;10.908;2023-02-21T06:13:54;95696.25;;;6.60;61.54
24892;BME280;12954;50.688;10.908;2023-02-21T06:16:24;95649.78;;;6.49;61.15
24892;BME280;12954;50.688;10.908;2023-02-21T06:18:55;95708.13;;;6.69;61.58
24892;BME280;12954;50.688;10.908;2023-02-21T06:21:24;95672.72;;;6.40;61.86
24892;BME280;12954;50.688;10.908;2023-02-21T06:23:54;95732.03;;;6.49;61.70
24892;BME280;12954;50.688;10.908;2023-02-21T06:26:22;95705.88;;;6.83;62.37
24892;BME280;12954;50.688;10.908;2023-02-21T06:28:51;95715.59;;;6.89;62.34
24892;BME280;12954;50.688;10.908;2023-02-21T06:31:19;95705.38;;;6.86;62.32
24892;BME280;12954;50.688;10.908;2023-02-21T06:33:49;95717.31;;;7.00;61.87
24892;BME280;12954;50.688;10.908;2023-02-21T06:36:20;95716.28;;;7.06;61.56
24892;BME280;12954;50.688;10.908;2023-02-21T06:38:51;95731.56;;;7.05;61.39
24892;BME280;12954;50.688;10.908;2023-02-21T06:41:23;95743.03;;;7.01;61.74
24892;BME280;12954;50.688;10.908;2023-02-21T06:43:52;95741.50;;;7.05;61.17
24892;BME280;12954;50.688;10.908;2023-02-21T06:46:23;95747.34;;;7.02;61.52
24892;BME280;12954;50.688;10.908;2023-02-21T06:48:52;95744.16;;;7.05;61.28
24892;BME280;12954;50.688;10.908;2023-02-21T06:51:22;95737.75;;;7.06;60.78
24892;BME280;12954;50.688;10.908;2023-02-21T06:53:56;95750.53;;;6.99;61.10
24892;BME280;12954;50.688;10.908;2023-02-21T06:56:25;95747.28;;;6.92;61.35
24892;BME280;12954;50.688;10.908;2023-02-21T06:58:54;95753.19;;;6.94;61.27
24892;BME280;12954;50.688;10.908;2023-02-21T07:01:24;95756.91;;;6.93;61.25
24892;BME280;12954;50.688;10.908;2023-02-21T07:03:54;95769.94;;;7.06;60.62
24892;BME280;12954;50.688;10.908;2023-02-21T07:06:24;95727.75;;;6.75;61.02
24892;BME280;12954;50.688;10.908;2023-02-21T07:08:55;95710.63;;;6.76;60.39
24892;BME280;12954;50.688;10.908;2023-02-21T07:11:24;95745.34;;;6.87;60.68
24892;BME280;12954;50.688;10.908;2023-02-21T07:13:53;95754.19;;;6.88;60.78
24892;BME280;12954;50.688;10.908;2023-02-21T07:16:25;95758.00;;;6.92;60.88
24892;BME280;12954;50.688;10.908;2023-02-21T07:18:54;95761.75;;;7.17;59.84
24892;BME280;12954;50.688;10.908;2023-02-21T07:21:25;95739.22;;;6.92;60.00
24892;BME280;12954;50.688;10.908;2023-02-21T07:23:54;95757.28;;;7.28;59.14
24892;BME280;12954;50.688;10.908;2023-02-21T07:26:22;95751.72;;;7.08;59.97
24892;BME280;12954;50.688;10.908;2023-02-21T07:28:50;95741.19;;;7.01;59.86
24892;BME280;12954;50.688;10.908;2023-02-21T07:31:19;95745.72;;;7.01;60.08
24892;BME280;12954;50.688;10.908;2023-02-21T07:33:48;95760.81;;;7.07;60.33
24892;BME280;12954;50.688;10.908;2023-02-21T07:36:16;95753.84;;;7.06;60.19
24892;BME280;12954;50.688;10.908;2023-02-21T07:38:46;95777.72;;;7.34;59.60
24892;BME280;12954;50.688;10.908;2023-02-21T07:41:16;95773.13;;;7.30;59.63
24892;BME280;12954;50.688;10.908;2023-02-21T07:43:44;95783.00;;;7.24;59.93
24892;BME280;12954;50.688;10.908;2023-02-21T07:46:14;95782.03;;;7.35;59.60
24892;BME280;12954;50.688;10.908;2023-02-21T07:48:44;95761.31;;;7.04;60.07
24892;BME280;12954;50.688;10.908;2023-02-21T07:51:12;95782.59;;;7.37;59.50
24892;BME280;12954;50.688;10.908;2023-02-21T07:53:41;95778.72;;;7.28;59.79
24892;BME280;12954;50.688;10.908;2023-02-21T07:56:11;95796.03;;;7.42;59.49
24892;BME280;12954;50.688;10.908;2023-02-21T07:58:40;95804.59;;;7.39;59.88
24892;BME280;12954;50.688;10.908;2023-02-21T08:01:08;95800.63;;;7.42;59.82
24892;BME280;12954;50.688;10.908;2023-02-21T08:03:37;95794.16;;;7.43;59.66
24892;BME280;12954;50.688;10.908;2023-02-21T08:06:07;95804.09;;;7.42;59.84
24892;BME280;12954;50.688;10.908;2023-02-21T08:08:36;95816.22;;;7.45;60.05
24892;BME280;12954;50.688;10.908;2023-02-21T08:11:05;95804.16;;;7.47;59.97
24892;BME280;12954;50.688;10.908;2023-02-21T08:13:35;95802.03;;;7.49;60.26
24892;BME280;12954;50.688;10.908;2023-02-21T08:16:03;95808.53;;;7.58;60.07
24892;BME280;12954;50.688;10.908;2023-02-21T08:18:32;95806.69;;;7.59;59.98
24892;BME280;12954;50.688;10.908;2023-02-21T08:21:00;95802.66;;;7.61;60.04
24892;BME280;12954;50.688;10.908;2023-02-21T08:23:29;95801.72;;;7.72;59.90
24892;BME280;12954;50.688;10.908;2023-02-21T08:25:57;95805.03;;;7.85;59.62
24892;BME280;12954;50.688;10.908;2023-02-21T08:28:26;95799.66;;;7.85;59.45
24892;BME280;12954;50.688;10.908;2023-02-21T08:30:56;95815.88;;;7.95;59.32
24892;BME280;12954;50.688;10.908;2023-02-21T08:33:24;95812.81;;;7.86;59.42
24892;BME280;12954;50.688;10.908;2023-02-21T08:35:53;95822.94;;;8.06;58.94
24892;BME280;12954;50.688;10.908;2023-02-21T08:38:21;95818.63;;;8.05;59.08
24892;BME280;12954;50.688;10.908;2023-02-21T08:40:49;95819.66;;;8.04;59.06
24892;BME280;12954;50.688;10.908;2023-02-21T08:43:18;95820.91;;;8.23;58.22
24892;BME280;12954;50.688;10.908;2023-02-21T08:45:47;95824.84;;;8.10;58.38
24892;BME280;12954;50.688;10.908;2023-02-21T08:48:17;95827.81;;;8.14;58.31
24892;BME280;12954;50.688;10.908;2023-02-21T08:50:45;95814.97;;;8.21;57.58
24892;BME280;12954;50.688;10.908;2023-02-21T08:53:14;95829.34;;;8.00;58.52
24892;BME280;12954;50.688;10.908;2023-02-21T08:55:42;95824.81;;;8.05;58.58
24892;BME280;12954;50.688;10.908;2023-02-21T08:58:11;95829.06;;;8.01;58.93
24892;BME280;12954;50.688;10.908;2023-02-21T09:00:40;95817.81;;;8.04;59.00
24892;BME280;12954;50.688;10.908;2023-02-21T09:03:08;95829.91;;;8.07;59.14
24892;BME280;12954;50.688;10.908;2023-02-21T09:05:38;95832.91;;;8.15;58.84
24892;BME280;12954;50.688;10.908;2023-02-21T09:08:07;95834.56;;;8.21;58.76
24892;BME280;12954;50.688;10.908;2023-02-21T09:10:36;95825.44;;;8.17;58.93
24892;BME280;12954;50.688;10.908;2023-02-21T09:13:06;95824.69;;;8.27;58.86
24892;BME280;12954;50.688;10.908;2023-02-21T09:15:35;95816.06;;;8.25;58.70
24892;BME280;12954;50.688;10.908;2023-02-21T09:18:04;95828.03;;;8.49;58.29
24892;BME280;12954;50.688;10.908;2023-02-21T09:20:33;95824.97;;;8.30;59.00
24892;BME280;12954;50.688;10.908;2023-02-21T09:23:05;95821.44;;;8.25;59.28
24892;BME280;12954;50.688;10.908;2023-02-21T09:25:33;95761.75;;;8.18;58.79
24892;BME280;12954;50.688;10.908;2023-02-21T09:28:01;95819.53;;;8.20;59.72
24892;BME280;12954;50.688;10.908;2023-02-21T09:30:30;95819.53;;;8.20;59.80
24892;BME280;12954;50.688;10.908;2023-02-21T09:32:58;95825.44;;;8.17;59.99
24892;BME280;12954;50.688;10.908;2023-02-21T09:35:27;95827.84;;;8.19;60.03
24892;BME280;12954;50.688;10.908;2023-02-21T09:37:57;95831.69;;;8.28;60.09
24892;BME280;12954;50.688;10.908;2023-02-21T09:40:33;95810.63;;;8.15;60.35
24892;BME280;12954;50.688;10.908;2023-02-21T09:43:05;95823.59;;;8.23;60.39
24892;BME280;12954;50.688;10.908;2023-02-21T09:45:36;95825.22;;;8.24;60.40
24892;BME280;12954;50.688;10.908;2023-02-21T09:48:07;95833.00;;;8.25;60.48
24892;BME280;12954;50.688;10.908;2023-02-21T09:50:40;95832.50;;;8.28;60.61
24892;BME280;12954;50.688;10.908;2023-02-21T09:53:13;95830.09;;;8.32;60.53
24892;BME280;12954;50.688;10.908;2023-02-21T09:55:45;95824.44;;;8.33;60.29
24892;BME280;12954;50.688;10.908;2023-02-21T09:58:18;95828.03;;;8.44;60.37
24892;BME280;12954;50.688;10.908;2023-02-21T10:00:47;95759.50;;;8.05;60.30
24892;BME280;12954;50.688;10.908;2023-02-21T10:03:40;95823.78;;;8.58;59.84
24892;BME280;12954;50.688;10.908;2023-02-21T10:06:19;95832.59;;;8.49;60.25
24892;BME280;12954;50.688;10.908;2023-02-21T10:08:53;95791.34;;;8.23;60.16
24892;BME280;12954;50.688;10.908;2023-02-21T10:11:36;95821.94;;;8.64;59.75
24892;BME280;12954;50.688;10.908;2023-02-21T10:14:14;95835.28;;;8.49;60.22
24892;BME280;12954;50.688;10.908;2023-02-21T10:16:49;95823.78;;;8.53;60.30
24892;BME280;12954;50.688;10.908;2023-02-21T10:19:22;95822.69;;;8.54;60.49
24892;BME280;12954;50.688;10.908;2023-02-21T10:21:56;95826.53;;;8.68;60.06
24892;BME280;12954;50.688;10.908;2023-02-21T10:24:27;95791.44;;;8.43;60.27
24892;BME280;12954;50.688;10.908;2023-02-21T10:27:00;95829.50;;;8.72;60.36
24892;BME280;12954;50.688;10.908;2023-02-21T10:29:36;95819.53;;;8.67;60.24
24892;BME280;12954;50.688;10.908;2023-02-21T10:32:07;95811.25;;;8.74;60.43
24892;BME280;12954;50.688;10.908;2023-02-21T10:34:35;95815.88;;;8.88;60.22
24892;BME280;12954;50.688;10.908;2023-02-21T10:37:16;95808.41;;;9.06;59.63
24892;BME280;12954;50.688;10.908;2023-02-21T10:39:52;95822.31;;;8.87;60.49
24892;BME280;12954;50.688;10.908;2023-02-21T10:42:30;95821.28;;;8.99;60.40
24892;BME280;12954;50.688;10.908;2023-02-21T10:44:59;95822.84;;;8.89;60.58
24892;BME280;12954;50.688;10.908;2023-02-21T10:47:36;95827.47;;;8.99;60.68
24892;BME280;12954;50.688;10.908;2023-02-21T10:50:11;95804.03;;;8.89;60.53
24892;BME280;12954;50.688;10.908;2023-02-21T10:52:46;95822.47;;;9.28;59.63
24892;BME280;12954;50.688;10.908;2023-02-21T10:55:17;95816.56;;;9.26;59.81
24892;BME280;12954;50.688;10.908;2023-02-21T10:58:07;95816.03;;;9.24;59.62
24892;BME280;12954;50.688;10.908;2023-02-21T11:00:38;95809.47;;;9.05;60.29
24892;BME280;12954;50.688;10.908;2023-02-21T11:03:20;95810.84;;;9.12;60.37
24892;BME280;12954;50.688;10.908;2023-02-21T11:05:50;95807.94;;;9.24;59.97
24892;BME280;12954;50.688;10.908;2023-02-21T11:08:34;95801.75;;;9.28;59.29
24892;BME280;12954;50.688;10.908;2023-02-21T11:11:04;95807.66;;;9.30;59.68
24892;BME280;12954;50.688;10.908;2023-02-21T11:13:34;95804.97;;;9.20;59.96
24892;BME280;12954;50.688;10.908;2023-02-21T11:16:10;95806.31;;;9.33;59.81
24892;BME280;12954;50.688;10.908;2023-02-21T11:18:39;95799.34;;;9.32;59.84
24892;BME280;12954;50.688;10.908;2023-02-21T11:21:12;95799.63;;;9.45;59.29
24892;BME280;12954;50.688;10.908;2023-02-21T11:23:44;95804.16;;;9.25;59.75
24892;BME280;12954;50.688;10.908;2023-02-21T11:26:16;95792.31;;;9.26;60.05
24892;BME280;12954;50.688;10.908;2023-02-21T11:28:46;95793.97;;;9.37;59.98
24892;BME280;12954;50.688;10.908;2023-02-21T11:31:17;95790.19;;;9.38;60.21
24892;BME280;12954;50.688;10.908;2023-02-21T11:33:49;95781.56;;;9.31;60.04
24892;BME280;12954;50.688;10.908;2023-02-21T11:36:19;95789.66;;;9.51;59.91
24892;BME280;12954;50.688;10.908;2023-02-21T11:39:02;95777.31;;;9.70;58.79
24892;BME280;12954;50.688;10.908;2023-02-21T11:41:36;95779.72;;;9.62;59.14
24892;BME280;12954;50.688;10.908;2023-02-21T11:44:28;95784.28;;;9.66;59.17
24892;BME280;12954;50.688;10.908;2023-02-21T11:47:04;95783.22;;;9.87;58.26
24892;BME280;12954;50.688;10.908;2023-02-21T11:49:40;95743.88;;;9.71;58.50
24892;BME280;12954;50.688;10.908;2023-02-21T11:52:21;95758.16;;;9.82;58.39
24892;BME280;12954;50.688;10.908;2023-02-21T11:54:51;95764.38;;;9.87;58.56
24892;BME280;12954;50.688;10.908;2023-02-21T11:57:25;95756.81;;;9.99;58.21
24892;BME280;12954;50.688;10.908;2023-02-21T12:00:10;95728.25;;;9.93;57.62
24892;BME280;12954;50.688;10.908;2023-02-21T12:02:55;95754.63;;;10.17;57.32
24892;BME280;12954;50.688;10.908;2023-02-21T12:05:38;95743.31;;;10.04;56.92
24892;BME280;12954;50.688;10.908;2023-02-21T12:08:23;95752.72;;;10.12;57.16
24892;BME280;12954;50.688;10.908;2023-02-21T12:11:17;95768.09;;;10.37;55.92
24892;BME280;12954;50.688;10.908;2023-02-21T12:13:56;95757.28;;;10.27;56.10
24892;BME280;12954;50.688;10.908;2023-02-21T12:16:39;95758.91;;;10.28;55.92
24892;BME280;12954;50.688;10.908;2023-02-21T12:19:20;95743.03;;;10.16;56.21
24892;BME280;12954;50.688;10.908;2023-02-21T12:22:02;95749.78;;;9.98;57.15
24892;BME280;12954;50.688;10.908;2023-02-21T12:24:45;95746.53;;;10.07;57.02
24892;BME280;12954;50.688;10.908;2023-02-21T12:27:41;95752.47;;;10.14;56.64
24892;BME280;12954;50.688;10.908;2023-02-21T12:30:34;95734.16;;;10.11;56.97
24892;BME280;12954;50.688;10.908;2023-02-21T12:33:19;95707.75;;;9.97;56.96
24892;BME280;12954;50.688;10.908;2023-02-21T12:36:12;95733.56;;;10.29;56.59
24892;BME280;12954;50.688;10.908;2023-02-21T12:38:56;95732.22;;;10.26;57.00
24892;BME280;12954;50.688;10.908;2023-02-21T12:41:42;95717.38;;;10.29;56.97
24892;BME280;12954;50.688;10.908;2023-02-21T12:44:14;95717.34;;;10.49;56.27
24892;BME280;12954;50.688;10.908;2023-02-21T12:46:48;95719.19;;;10.64;56.17
24892;BME280;12954;50.688;10.908;2023-02-21T12:49:22;95720.16;;;10.83;55.25
24892;BME280;12954;50.688;10.908;2023-02-21T12:51:56;95633.25;;;10.27;55.59
24892;BME280;12954;50.688;10.908;2023-02-21T12:54:35;95708.31;;;10.79;55.73
24892;BME280;12954;50.688;10.908;2023-02-21T12:57:10;95716.00;;;11.00;55.27
24892;BME280;12954;50.688;10.908;2023-02-21T12:59:45;95711.47;;;10.96;55.55
24892;BME280;12954;50.688;10.908;2023-02-21T13:02:22;95710.09;;;10.98;55.08
24892;BME280;12954;50.688;10.908;2023-02-21T13:04:57;95705.81;;;10.92;55.16
24892;BME280;12954;50.688;10.908;2023-02-21T13:07:32;95704.72;;;10.88;55.14
24892;BME280;12954;50.688;10.908;2023-02-21T13:10:07;95700.66;;;10.96;54.72
24892;BME280;12954;50.688;10.908;2023-02-21T13:12:43;95699.03;;;11.00;54.24
24892;BME280;12954;50.688;10.908;2023-02-21T13:15:18;95659.81;;;10.64;54.50
24892;BME280;12954;50.688;10.908;2023-02-21T13:17:55;95684.81;;;10.84;55.00
24892;BME280;12954;50.688;10.908;2023-02-21T13:20:30;95677.44;;;10.95;54.60
24892;BME280;12954;50.688;10.908;2023-02-21T13:26:19;95680.78;;;10.82;55.14
24892;BME280;12954;50.688;10.908;2023-02-21T13:28:51;95684.88;;;10.69;55.50
24892;BME280;12954;50.688;10.908;2023-02-21T13:31:23;95685.94;;;10.73;55.69
24892;BME280;12954;50.688;10.908;2023-02-21T13:33:55;95678.88;;;10.82;55.58
24892;BME280;12954;50.688;10.908;2023-02-21T13:36:28;95656.75;;;10.85;55.21
24892;BME280;12954;50.688;10.908;2023-02-21T13:39:01;95681.00;;;10.90;55.57
24892;BME280;12954;50.688;10.908;2023-02-21T13:41:33;95682.03;;;10.94;55.42
24892;BME280;12954;50.688;10.908;2023-02-21T13:44:05;95722.56;;;10.89;55.65
24892;BME280;12954;50.688;10.908;2023-02-21T13:49:42;95678.78;;;10.97;55.55
24892;BME280;12954;50.688;10.908;2023-02-21T13:52:49;95680.91;;;11.00;55.24